sensor_id;sensor_type;location;lat;lon;timestamp;temperature;humidity
3638;DHT22;1835;50.068;8.154;2022-07-06T00:01:18;17.80;99.90
3638;DHT22;1835;50.068;8.154;2022-07-06T00:03:47;17.70;99.90
3638;DHT22;1835;50.068;8.154;2022-07-06T00:06:21;17.70;99.90
3638;DHT22;1835;50.068;8.154;2022-07-06T00:08:50;17.50;99.90
3638;DHT22;1835;50.068;8.154;2022-07-06T00:11:19;17.40;99.90
3638;DHT22;1835;50.068;8.154;2022-07-06T00:13:47;17.40;99.90
3638;DHT22;1835;50.068;8.154;2022-07-06T00:16:15;17.40;99.90
3638;DHT22;1835;50.068;8.154;2022-07-06T00:18:44;17.50;99.90
3638;DHT22;1835;50.068;8.154;2022-07-06T00:21:12;17.40;99.90
3638;DHT22;1835;50.068;8.154;2022-07-06T00:23:40;17.40;99.90
3638;DHT22;1835;50.068;8.154;2022-07-06T00:26:10;17.40;99.90
3638;DHT22;1835;50.068;8.154;2022-07-06T00:28:38;17.30;99.90
3638;DHT22;1835;50.068;8.154;2022-07-06T00:31:06;17.30;99.90
3638;DHT22;1835;50.068;8.154;2022-07-06T00:33:34;17.20;99.90
3638;DHT22;1835;50.068;8.154;2022-07-06T00:36:03;17.20;99.90
3638;DHT22;1835;50.068;8.154;2022-07-06T00:38:32;17.20;99.90
3638;DHT22;1835;50.068;8.154;2022-07-06T00:41:00;17.10;99.90
3638;DHT22;1835;50.068;8.154;2022-07-06T00:43:46;17.20;99.90
3638;DHT22;1835;50.068;8.154;2022-07-06T00:46:15;17.10;99.90
3638;DHT22;1835;50.068;8.154;2022-07-06T00:48:44;17.10;99.90
3638;DHT22;1835;50.068;8.154;2022-07-06T00:51:12;17.10;99.90
3638;DHT22;1835;50.068;8.154;2022-07-06T00:53:41;17.00;99.90
3638;DHT22;1835;50.068;8.154;2022-07-06T00:56:10;17.00;99.90
3638;DHT22;1835;50.068;8.154;2022-07-06T00:58:39;17.00;99.90
3638;DHT22;1835;50.068;8.154;2022-07-06T01:01:08;17.00;99.90
3638;DHT22;1835;50.068;8.154;2022-07-06T01:03:36;16.90;99.90
3638;DHT22;1835;50.068;8.154;2022-07-06T01:06:04;16.90;99.90
3638;DHT22;1835;50.068;8.154;2022-07-06T01:08:32;17.00;99.90
3638;DHT22;1835;50.068;8.154;2022-07-06T01:11:01;16.80;99.90
3638;DHT22;1835;50.068;8.154;2022-07-06T01:13:30;16.80;99.90
3638;DHT22;1835;50.068;8.154;2022-07-06T01:16:00;16.90;99.90
3638;DHT22;1835;50.068;8.154;2022-07-06T01:18:28;16.80;99.90
3638;DHT22;1835;50.068;8.154;2022-07-06T01:21:09;16.60;99.90
3638;DHT22;1835;50.068;8.154;2022-07-06T01:23:40;16.60;99.90
3638;DHT22;1835;50.068;8.154;2022-07-06T01:26:10;16.40;99.90
3638;DHT22;1835;50.068;8.154;2022-07-06T01:28:39;16.30;99.90
3638;DHT22;1835;50.068;8.154;2022-07-06T01:31:14;16.30;99.90
3638;DHT22;1835;50.068;8.154;2022-07-06T01:33:43;16.20;99.90
3638;DHT22;1835;50.068;8.154;2022-07-06T01:36:13;16.20;99.90
3638;DHT22;1835;50.068;8.154;2022-07-06T01:38:45;16.30;99.90
3638;DHT22;1835;50.068;8.154;2022-07-06T01:41:15;16.20;99.90
3638;DHT22;1835;50.068;8.154;2022-07-06T01:43:43;16.00;99.90
3638;DHT22;1835;50.068;8.154;2022-07-06T01:46:12;16.00;99.90
3638;DHT22;1835;50.068;8.154;2022-07-06T01:48:41;16.00;99.90
3638;DHT22;1835;50.068;8.154;2022-07-06T01:51:09;16.10;99.90
3638;DHT22;1835;50.068;8.154;2022-07-06T01:53:40;16.10;99.90
3638;DHT22;1835;50.068;8.154;2022-07-06T01:56:09;16.10;99.90
3638;DHT22;1835;50.068;8.154;2022-07-06T01:58:37;16.00;99.90
3638;DHT22;1835;50.068;8.154;2022-07-06T02:01:10;16.00;99.90
3638;DHT22;1835;50.068;8.154;2022-07-06T02:03:39;16.10;99.90
3638;DHT22;1835;50.068;8.154;2022-07-06T02:06:07;16.00;99.90
3638;DHT22;1835;50.068;8.154;2022-07-06T02:08:36;15.90;99.90
3638;DHT22;1835;50.068;8.154;2022-07-06T02:11:07;15.80;99.90
3638;DHT22;1835;50.068;8.154;2022-07-06T02:13:36;15.60;99.90
3638;DHT22;1835;50.068;8.154;2022-07-06T02:16:05;15.60;99.90
3638;DHT22;1835;50.068;8.154;2022-07-06T02:18:33;15.60;99.90
3638;DHT22;1835;50.068;8.154;2022-07-06T02:21:01;15.60;99.90
3638;DHT22;1835;50.068;8.154;2022-07-06T02:23:30;15.60;99.90
3638;DHT22;1835;50.068;8.154;2022-07-06T02:26:01;15.70;99.90
3638;DHT22;1835;50.068;8.154;2022-07-06T02:28:31;15.60;99.90
3638;DHT22;1835;50.068;8.154;2022-07-06T02:31:00;15.50;99.90
3638;DHT22;1835;50.068;8.154;2022-07-06T02:33:28;15.40;99.90
3638;DHT22;1835;50.068;8.154;2022-07-06T02:35:56;15.40;99.90
3638;DHT22;1835;50.068;8.154;2022-07-06T02:38:24;15.30;99.90
3638;DHT22;1835;50.068;8.154;2022-07-06T02:40:52;15.30;99.90
3638;DHT22;1835;50.068;8.154;2022-07-06T02:43:20;15.20;99.90
3638;DHT22;1835;50.068;8.154;2022-07-06T02:45:50;15.20;99.90
3638;DHT22;1835;50.068;8.154;2022-07-06T02:48:18;15.20;99.90
3638;DHT22;1835;50.068;8.154;2022-07-06T02:50:48;15.10;99.90
3638;DHT22;1835;50.068;8.154;2022-07-06T02:53:17;15.00;99.90
3638;DHT22;1835;50.068;8.154;2022-07-06T02:55:46;15.10;99.90
3638;DHT22;1835;50.068;8.154;2022-07-06T02:58:14;14.90;99.90
3638;DHT22;1835;50.068;8.154;2022-07-06T03:00:42;15.00;99.90
3638;DHT22;1835;50.068;8.154;2022-07-06T03:03:12;15.10;99.90
3638;DHT22;1835;50.068;8.154;2022-07-06T03:05:40;15.10;99.90
3638;DHT22;1835;50.068;8.154;2022-07-06T03:08:08;15.20;99.90
3638;DHT22;1835;50.068;8.154;2022-07-06T03:10:36;14.90;99.90
3638;DHT22;1835;50.068;8.154;2022-07-06T03:13:04;15.00;99.90
3638;DHT22;1835;50.068;8.154;2022-07-06T03:15:32;15.00;99.90
3638;DHT22;1835;50.068;8.154;2022-07-06T03:18:00;15.00;99.90
3638;DHT22;1835;50.068;8.154;2022-07-06T03:20:30;14.90;99.90
3638;DHT22;1835;50.068;8.154;2022-07-06T03:22:58;14.90;99.90
3638;DHT22;1835;50.068;8.154;2022-07-06T03:25:26;14.90;99.90
3638;DHT22;1835;50.068;8.154;2022-07-06T03:27:54;14.90;99.90
3638;DHT22;1835;50.068;8.154;2022-07-06T03:30:23;14.90;99.90
3638;DHT22;1835;50.068;8.154;2022-07-06T03:32:51;14.90;99.90
3638;DHT22;1835;50.068;8.154;2022-07-06T03:35:19;14.90;99.90
3638;DHT22;1835;50.068;8.154;2022-07-06T03:37:48;14.90;99.90
3638;DHT22;1835;50.068;8.154;2022-07-06T03:40:17;14.90;99.90
3638;DHT22;1835;50.068;8.154;2022-07-06T03:42:45;14.80;99.90
3638;DHT22;1835;50.068;8.154;2022-07-06T03:45:13;14.80;99.90
3638;DHT22;1835;50.068;8.154;2022-07-06T03:47:42;14.80;99.90
3638;DHT22;1835;50.068;8.154;2022-07-06T03:50:10;14.70;99.90
3638;DHT22;1835;50.068;8.154;2022-07-06T03:52:38;14.60;99.90
3638;DHT22;1835;50.068;8.154;2022-07-06T03:55:10;14.60;99.90
3638;DHT22;1835;50.068;8.154;2022-07-06T03:57:39;14.60;99.90
3638;DHT22;1835;50.068;8.154;2022-07-06T04:00:09;14.40;99.90
3638;DHT22;1835;50.068;8.154;2022-07-06T04:02:37;14.40;99.90
3638;DHT22;1835;50.068;8.154;2022-07-06T04:05:06;14.30;99.90
3638;DHT22;1835;50.068;8.154;2022-07-06T04:07:35;14.40;99.90
3638;DHT22;1835;50.068;8.154;2022-07-06T04:10:04;14.20;99.90
3638;DHT22;1835;50.068;8.154;2022-07-06T04:12:41;14.20;99.90
3638;DHT22;1835;50.068;8.154;2022-07-06T04:15:10;14.30;99.90
3638;DHT22;1835;50.068;8.154;2022-07-06T04:17:39;14.40;99.90
3638;DHT22;1835;50.068;8.154;2022-07-06T04:20:20;14.40;99.90
3638;DHT22;1835;50.068;8.154;2022-07-06T04:22:48;14.30;99.90
3638;DHT22;1835;50.068;8.154;2022-07-06T04:25:17;14.30;99.90
3638;DHT22;1835;50.068;8.154;2022-07-06T04:27:46;14.40;99.90
3638;DHT22;1835;50.068;8.154;2022-07-06T04:30:15;14.30;99.90
3638;DHT22;1835;50.068;8.154;2022-07-06T04:32:43;14.30;99.90
3638;DHT22;1835;50.068;8.154;2022-07-06T04:35:11;14.30;99.90
3638;DHT22;1835;50.068;8.154;2022-07-06T04:37:39;14.40;99.90
3638;DHT22;1835;50.068;8.154;2022-07-06T04:40:08;14.50;99.90
3638;DHT22;1835;50.068;8.154;2022-07-06T04:42:44;14.40;99.90
3638;DHT22;1835;50.068;8.154;2022-07-06T04:45:13;14.40;99.90
3638;DHT22;1835;50.068;8.154;2022-07-06T04:47:41;14.30;99.90
3638;DHT22;1835;50.068;8.154;2022-07-06T04:50:11;14.30;99.90
3638;DHT22;1835;50.068;8.154;2022-07-06T04:52:40;14.40;99.90
3638;DHT22;1835;50.068;8.154;2022-07-06T04:55:09;14.30;99.90
3638;DHT22;1835;50.068;8.154;2022-07-06T04:57:37;14.40;99.90
3638;DHT22;1835;50.068;8.154;2022-07-06T05:00:07;14.30;99.90
3638;DHT22;1835;50.068;8.154;2022-07-06T05:02:37;14.40;99.90
3638;DHT22;1835;50.068;8.154;2022-07-06T05:05:07;14.50;99.90
3638;DHT22;1835;50.068;8.154;2022-07-06T05:07:36;14.60;99.90
3638;DHT22;1835;50.068;8.154;2022-07-06T05:10:08;14.60;99.90
3638;DHT22;1835;50.068;8.154;2022-07-06T05:12:37;14.60;99.90
3638;DHT22;1835;50.068;8.154;2022-07-06T05:15:06;14.60;99.90
3638;DHT22;1835;50.068;8.154;2022-07-06T05:17:37;14.70;99.90
3638;DHT22;1835;50.068;8.154;2022-07-06T05:20:06;14.80;99.90
3638;DHT22;1835;50.068;8.154;2022-07-06T05:22:35;14.70;99.90
3638;DHT22;1835;50.068;8.154;2022-07-06T05:25:11;15.00;99.90
3638;DHT22;1835;50.068;8.154;2022-07-06T05:27:39;15.40;99.90
3638;DHT22;1835;50.068;8.154;2022-07-06T05:30:09;15.50;99.90
3638;DHT22;1835;50.068;8.154;2022-07-06T05:32:39;15.60;99.90
3638;DHT22;1835;50.068;8.154;2022-07-06T05:35:07;15.90;99.90
3638;DHT22;1835;50.068;8.154;2022-07-06T05:37:56;16.20;99.90
3638;DHT22;1835;50.068;8.154;2022-07-06T05:40:24;16.80;99.90
3638;DHT22;1835;50.068;8.154;2022-07-06T05:42:52;17.50;98.80
3638;DHT22;1835;50.068;8.154;2022-07-06T05:45:21;17.80;97.80
3638;DHT22;1835;50.068;8.154;2022-07-06T05:47:51;18.30;97.50
3638;DHT22;1835;50.068;8.154;2022-07-06T05:50:36;18.40;95.90
3638;DHT22;1835;50.068;8.154;2022-07-06T05:53:05;18.70;95.90
3638;DHT22;1835;50.068;8.154;2022-07-06T05:55:45;19.10;95.20
3638;DHT22;1835;50.068;8.154;2022-07-06T05:58:13;19.70;94.60
3638;DHT22;1835;50.068;8.154;2022-07-06T06:00:42;19.20;93.70
3638;DHT22;1835;50.068;8.154;2022-07-06T06:03:11;19.40;94.00
3638;DHT22;1835;50.068;8.154;2022-07-06T06:05:40;19.00;93.70
3638;DHT22;1835;50.068;8.154;2022-07-06T06:08:08;19.60;93.50
3638;DHT22;1835;50.068;8.154;2022-07-06T06:10:36;19.90;92.80
3638;DHT22;1835;50.068;8.154;2022-07-06T06:13:04;20.20;92.60
3638;DHT22;1835;50.068;8.154;2022-07-06T06:15:33;19.80;92.10
3638;DHT22;1835;50.068;8.154;2022-07-06T06:18:01;19.70;92.60
3638;DHT22;1835;50.068;8.154;2022-07-06T06:20:32;19.20;93.10
3638;DHT22;1835;50.068;8.154;2022-07-06T06:23:00;19.30;92.90
3638;DHT22;1835;50.068;8.154;2022-07-06T06:25:32;19.90;92.20
3638;DHT22;1835;50.068;8.154;2022-07-06T06:28:01;20.00;91.60
3638;DHT22;1835;50.068;8.154;2022-07-06T06:30:31;20.50;92.20
3638;DHT22;1835;50.068;8.154;2022-07-06T06:33:07;20.80;90.10
3638;DHT22;1835;50.068;8.154;2022-07-06T06:35:38;20.50;90.00
3638;DHT22;1835;50.068;8.154;2022-07-06T06:38:10;20.70;91.00
3638;DHT22;1835;50.068;8.154;2022-07-06T06:40:39;21.70;89.20
3638;DHT22;1835;50.068;8.154;2022-07-06T06:43:07;22.40;86.70
3638;DHT22;1835;50.068;8.154;2022-07-06T06:45:35;22.90;83.20
3638;DHT22;1835;50.068;8.154;2022-07-06T06:48:04;22.60;80.20
3638;DHT22;1835;50.068;8.154;2022-07-06T06:50:39;22.60;81.00
3638;DHT22;1835;50.068;8.154;2022-07-06T06:53:08;23.10;80.80
3638;DHT22;1835;50.068;8.154;2022-07-06T06:55:36;23.40;79.70
3638;DHT22;1835;50.068;8.154;2022-07-06T06:58:04;23.50;75.90
3638;DHT22;1835;50.068;8.154;2022-07-06T07:00:32;23.50;76.60
3638;DHT22;1835;50.068;8.154;2022-07-06T07:03:01;23.20;74.30
3638;DHT22;1835;50.068;8.154;2022-07-06T07:05:29;23.90;74.30
3638;DHT22;1835;50.068;8.154;2022-07-06T07:07:58;24.10;72.40
3638;DHT22;1835;50.068;8.154;2022-07-06T07:10:31;24.30;77.50
3638;DHT22;1835;50.068;8.154;2022-07-06T07:12:59;24.00;70.00
3638;DHT22;1835;50.068;8.154;2022-07-06T07:15:27;23.40;69.90
3638;DHT22;1835;50.068;8.154;2022-07-06T07:17:56;23.60;69.90
3638;DHT22;1835;50.068;8.154;2022-07-06T07:20:24;24.30;71.20
3638;DHT22;1835;50.068;8.154;2022-07-06T07:22:52;25.30;70.00
3638;DHT22;1835;50.068;8.154;2022-07-06T07:25:22;25.40;67.30
3638;DHT22;1835;50.068;8.154;2022-07-06T07:27:50;26.00;68.40
3638;DHT22;1835;50.068;8.154;2022-07-06T07:30:18;26.60;62.10
3638;DHT22;1835;50.068;8.154;2022-07-06T07:32:47;26.30;61.40
3638;DHT22;1835;50.068;8.154;2022-07-06T07:35:15;26.30;64.70
3638;DHT22;1835;50.068;8.154;2022-07-06T07:37:43;26.70;59.90
3638;DHT22;1835;50.068;8.154;2022-07-06T07:40:14;25.70;60.10
3638;DHT22;1835;50.068;8.154;2022-07-06T07:42:44;25.30;60.20
3638;DHT22;1835;50.068;8.154;2022-07-06T07:45:12;25.90;61.00
3638;DHT22;1835;50.068;8.154;2022-07-06T07:47:41;26.70;58.60
3638;DHT22;1835;50.068;8.154;2022-07-06T07:50:09;26.80;57.00
3638;DHT22;1835;50.068;8.154;2022-07-06T07:52:39;26.90;58.00
3638;DHT22;1835;50.068;8.154;2022-07-06T07:55:07;27.60;56.50
3638;DHT22;1835;50.068;8.154;2022-07-06T07:57:57;26.20;55.20
3638;DHT22;1835;50.068;8.154;2022-07-06T08:00:26;26.70;55.60
3638;DHT22;1835;50.068;8.154;2022-07-06T08:02:55;26.60;55.80
3638;DHT22;1835;50.068;8.154;2022-07-06T08:05:23;26.80;55.10
3638;DHT22;1835;50.068;8.154;2022-07-06T08:07:51;27.30;53.40
3638;DHT22;1835;50.068;8.154;2022-07-06T08:10:20;27.30;54.40
3638;DHT22;1835;50.068;8.154;2022-07-06T08:12:48;28.10;52.20
3638;DHT22;1835;50.068;8.154;2022-07-06T08:15:18;28.40;51.00
3638;DHT22;1835;50.068;8.154;2022-07-06T08:17:46;27.90;52.50
3638;DHT22;1835;50.068;8.154;2022-07-06T08:20:15;27.80;51.50
3638;DHT22;1835;50.068;8.154;2022-07-06T08:22:43;28.50;51.90
3638;DHT22;1835;50.068;8.154;2022-07-06T08:25:11;28.10;50.30
3638;DHT22;1835;50.068;8.154;2022-07-06T08:27:39;27.60;49.80
3638;DHT22;1835;50.068;8.154;2022-07-06T08:30:10;27.90;51.80
3638;DHT22;1835;50.068;8.154;2022-07-06T08:32:41;28.20;48.80
3638;DHT22;1835;50.068;8.154;2022-07-06T08:35:30;28.00;48.70
3638;DHT22;1835;50.068;8.154;2022-07-06T08:37:58;28.80;50.00
3638;DHT22;1835;50.068;8.154;2022-07-06T08:40:31;29.10;49.10
3638;DHT22;1835;50.068;8.154;2022-07-06T08:43:06;28.40;46.20
3638;DHT22;1835;50.068;8.154;2022-07-06T08:45:35;28.70;46.50
3638;DHT22;1835;50.068;8.154;2022-07-06T08:48:06;29.60;47.00
3638;DHT22;1835;50.068;8.154;2022-07-06T08:50:34;29.70;44.10
3638;DHT22;1835;50.068;8.154;2022-07-06T08:53:03;30.30;44.00
3638;DHT22;1835;50.068;8.154;2022-07-06T08:55:32;30.20;44.80
3638;DHT22;1835;50.068;8.154;2022-07-06T08:58:00;30.50;43.70
3638;DHT22;1835;50.068;8.154;2022-07-06T09:00:28;30.20;43.80
3638;DHT22;1835;50.068;8.154;2022-07-06T09:02:57;29.60;44.10
3638;DHT22;1835;50.068;8.154;2022-07-06T09:05:28;28.90;46.40
3638;DHT22;1835;50.068;8.154;2022-07-06T09:07:57;28.80;47.60
3638;DHT22;1835;50.068;8.154;2022-07-06T09:10:26;28.40;46.80
3638;DHT22;1835;50.068;8.154;2022-07-06T09:13:02;27.40;47.10
3638;DHT22;1835;50.068;8.154;2022-07-06T09:15:31;28.10;49.00
3638;DHT22;1835;50.068;8.154;2022-07-06T09:18:01;27.90;47.80
3638;DHT22;1835;50.068;8.154;2022-07-06T09:20:31;28.60;48.60
3638;DHT22;1835;50.068;8.154;2022-07-06T09:23:01;29.40;47.00
3638;DHT22;1835;50.068;8.154;2022-07-06T09:25:30;29.50;46.70
3638;DHT22;1835;50.068;8.154;2022-07-06T09:27:59;28.80;45.00
3638;DHT22;1835;50.068;8.154;2022-07-06T09:30:29;29.60;44.80
3638;DHT22;1835;50.068;8.154;2022-07-06T09:32:58;28.60;44.40
3638;DHT22;1835;50.068;8.154;2022-07-06T09:35:28;27.90;45.40
3638;DHT22;1835;50.068;8.154;2022-07-06T09:38:06;26.60;45.40
3638;DHT22;1835;50.068;8.154;2022-07-06T09:40:35;26.90;47.80
3638;DHT22;1835;50.068;8.154;2022-07-06T09:43:14;27.70;48.60
3638;DHT22;1835;50.068;8.154;2022-07-06T09:45:44;28.10;45.20
3638;DHT22;1835;50.068;8.154;2022-07-06T09:48:15;27.90;46.00
3638;DHT22;1835;50.068;8.154;2022-07-06T09:50:50;27.70;45.70
3638;DHT22;1835;50.068;8.154;2022-07-06T09:53:20;27.60;46.10
3638;DHT22;1835;50.068;8.154;2022-07-06T09:55:53;27.00;45.10
3638;DHT22;1835;50.068;8.154;2022-07-06T09:58:23;27.60;46.30
3638;DHT22;1835;50.068;8.154;2022-07-06T10:01:11;28.10;45.60
3638;DHT22;1835;50.068;8.154;2022-07-06T10:03:40;26.70;45.90
3638;DHT22;1835;50.068;8.154;2022-07-06T10:06:10;26.50;47.40
3638;DHT22;1835;50.068;8.154;2022-07-06T10:08:39;27.30;48.60
3638;DHT22;1835;50.068;8.154;2022-07-06T10:11:07;28.20;48.00
3638;DHT22;1835;50.068;8.154;2022-07-06T10:13:42;28.30;45.40
3638;DHT22;1835;50.068;8.154;2022-07-06T10:16:12;28.20;45.70
3638;DHT22;1835;50.068;8.154;2022-07-06T10:18:41;28.10;43.60
3638;DHT22;1835;50.068;8.154;2022-07-06T10:21:11;28.50;45.70
3638;DHT22;1835;50.068;8.154;2022-07-06T10:23:40;28.90;44.50
3638;DHT22;1835;50.068;8.154;2022-07-06T10:26:09;28.60;44.90
3638;DHT22;1835;50.068;8.154;2022-07-06T10:28:40;28.90;43.90
3638;DHT22;1835;50.068;8.154;2022-07-06T10:31:09;29.00;46.30
3638;DHT22;1835;50.068;8.154;2022-07-06T10:33:39;28.20;44.50
3638;DHT22;1835;50.068;8.154;2022-07-06T10:36:08;28.50;45.10
3638;DHT22;1835;50.068;8.154;2022-07-06T10:38:38;28.00;44.30
3638;DHT22;1835;50.068;8.154;2022-07-06T10:41:08;27.80;47.80
3638;DHT22;1835;50.068;8.154;2022-07-06T10:43:37;28.00;46.20
3638;DHT22;1835;50.068;8.154;2022-07-06T10:46:08;27.80;47.60
3638;DHT22;1835;50.068;8.154;2022-07-06T10:48:38;27.30;46.50
3638;DHT22;1835;50.068;8.154;2022-07-06T10:51:08;27.20;47.00
3638;DHT22;1835;50.068;8.154;2022-07-06T10:53:38;27.10;48.00
3638;DHT22;1835;50.068;8.154;2022-07-06T10:56:09;26.50;47.10
3638;DHT22;1835;50.068;8.154;2022-07-06T10:58:48;25.80;48.00
3638;DHT22;1835;50.068;8.154;2022-07-06T11:01:19;25.90;49.10
3638;DHT22;1835;50.068;8.154;2022-07-06T11:03:49;25.00;48.10
3638;DHT22;1835;50.068;8.154;2022-07-06T11:06:18;25.10;50.10
3638;DHT22;1835;50.068;8.154;2022-07-06T11:08:53;24.70;50.70
3638;DHT22;1835;50.068;8.154;2022-07-06T11:11:25;24.50;50.90
3638;DHT22;1835;50.068;8.154;2022-07-06T11:13:58;24.80;53.00
3638;DHT22;1835;50.068;8.154;2022-07-06T11:16:29;24.60;51.60
3638;DHT22;1835;50.068;8.154;2022-07-06T11:19:06;24.50;51.10
3638;DHT22;1835;50.068;8.154;2022-07-06T11:21:38;24.30;52.00
3638;DHT22;1835;50.068;8.154;2022-07-06T11:24:11;24.40;52.50
3638;DHT22;1835;50.068;8.154;2022-07-06T11:26:41;24.40;54.10
3638;DHT22;1835;50.068;8.154;2022-07-06T11:29:11;23.90;52.20
3638;DHT22;1835;50.068;8.154;2022-07-06T11:31:41;23.70;54.10
3638;DHT22;1835;50.068;8.154;2022-07-06T11:34:11;23.80;55.30
3638;DHT22;1835;50.068;8.154;2022-07-06T11:36:41;23.50;53.90
3638;DHT22;1835;50.068;8.154;2022-07-06T11:39:14;23.70;53.90
3638;DHT22;1835;50.068;8.154;2022-07-06T11:41:42;23.70;51.90
3638;DHT22;1835;50.068;8.154;2022-07-06T11:44:17;23.80;53.20
3638;DHT22;1835;50.068;8.154;2022-07-06T11:46:46;23.60;52.00
3638;DHT22;1835;50.068;8.154;2022-07-06T11:49:15;23.50;50.50
3638;DHT22;1835;50.068;8.154;2022-07-06T11:51:45;23.60;53.30
3638;DHT22;1835;50.068;8.154;2022-07-06T11:54:16;23.30;52.70
3638;DHT22;1835;50.068;8.154;2022-07-06T11:56:46;23.40;53.50
3638;DHT22;1835;50.068;8.154;2022-07-06T11:59:16;23.00;54.60
3638;DHT22;1835;50.068;8.154;2022-07-06T12:01:44;22.90;55.50
3638;DHT22;1835;50.068;8.154;2022-07-06T12:04:13;22.90;57.30
3638;DHT22;1835;50.068;8.154;2022-07-06T12:06:43;22.90;55.20
3638;DHT22;1835;50.068;8.154;2022-07-06T12:09:12;22.90;55.00
3638;DHT22;1835;50.068;8.154;2022-07-06T12:11:45;23.10;54.10
3638;DHT22;1835;50.068;8.154;2022-07-06T12:14:16;23.30;56.70
3638;DHT22;1835;50.068;8.154;2022-07-06T12:16:46;23.60;55.60
3638;DHT22;1835;50.068;8.154;2022-07-06T12:19:15;23.60;52.70
3638;DHT22;1835;50.068;8.154;2022-07-06T12:21:45;23.50;51.90
3638;DHT22;1835;50.068;8.154;2022-07-06T12:24:19;23.40;52.20
3638;DHT22;1835;50.068;8.154;2022-07-06T12:26:51;23.60;53.70
3638;DHT22;1835;50.068;8.154;2022-07-06T12:29:21;23.60;53.80
3638;DHT22;1835;50.068;8.154;2022-07-06T12:31:51;23.50;52.90
3638;DHT22;1835;50.068;8.154;2022-07-06T12:34:21;23.30;53.10
3638;DHT22;1835;50.068;8.154;2022-07-06T12:36:51;23.10;52.80
3638;DHT22;1835;50.068;8.154;2022-07-06T12:39:22;23.10;54.40
3638;DHT22;1835;50.068;8.154;2022-07-06T12:41:53;23.10;53.20
3638;DHT22;1835;50.068;8.154;2022-07-06T12:44:24;23.10;54.00
3638;DHT22;1835;50.068;8.154;2022-07-06T12:47:02;23.20;52.80
3638;DHT22;1835;50.068;8.154;2022-07-06T12:49:32;23.20;52.30
3638;DHT22;1835;50.068;8.154;2022-07-06T12:52:08;23.10;51.50
3638;DHT22;1835;50.068;8.154;2022-07-06T12:54:41;23.40;51.80
3638;DHT22;1835;50.068;8.154;2022-07-06T12:57:13;23.30;53.90
3638;DHT22;1835;50.068;8.154;2022-07-06T12:59:44;23.40;53.40
3638;DHT22;1835;50.068;8.154;2022-07-06T13:02:19;23.60;53.90
3638;DHT22;1835;50.068;8.154;2022-07-06T13:05:11;23.80;54.40
3638;DHT22;1835;50.068;8.154;2022-07-06T13:07:45;23.70;54.30
3638;DHT22;1835;50.068;8.154;2022-07-06T13:10:15;23.30;53.60
3638;DHT22;1835;50.068;8.154;2022-07-06T13:12:46;22.90;53.70
3638;DHT22;1835;50.068;8.154;2022-07-06T13:15:14;22.70;53.80
3638;DHT22;1835;50.068;8.154;2022-07-06T13:17:43;22.70;55.20
3638;DHT22;1835;50.068;8.154;2022-07-06T13:20:13;22.50;55.00
3638;DHT22;1835;50.068;8.154;2022-07-06T13:22:43;22.60;55.20
3638;DHT22;1835;50.068;8.154;2022-07-06T13:25:12;22.60;55.10
3638;DHT22;1835;50.068;8.154;2022-07-06T13:27:40;22.40;55.50
3638;DHT22;1835;50.068;8.154;2022-07-06T13:30:11;22.10;55.20
3638;DHT22;1835;50.068;8.154;2022-07-06T13:32:40;22.10;54.80
3638;DHT22;1835;50.068;8.154;2022-07-06T13:35:08;22.00;54.70
3638;DHT22;1835;50.068;8.154;2022-07-06T13:37:37;22.20;56.20
3638;DHT22;1835;50.068;8.154;2022-07-06T13:40:06;22.40;56.30
3638;DHT22;1835;50.068;8.154;2022-07-06T13:42:35;22.70;55.70
3638;DHT22;1835;50.068;8.154;2022-07-06T13:45:04;22.80;54.80
3638;DHT22;1835;50.068;8.154;2022-07-06T13:47:34;22.80;55.20
3638;DHT22;1835;50.068;8.154;2022-07-06T13:50:02;22.90;54.10
3638;DHT22;1835;50.068;8.154;2022-07-06T13:52:31;22.40;53.80
3638;DHT22;1835;50.068;8.154;2022-07-06T13:54:59;22.40;54.10
3638;DHT22;1835;50.068;8.154;2022-07-06T13:57:28;22.70;55.60
3638;DHT22;1835;50.068;8.154;2022-07-06T13:59:57;22.60;53.10
3638;DHT22;1835;50.068;8.154;2022-07-06T14:02:25;22.70;52.90
3638;DHT22;1835;50.068;8.154;2022-07-06T14:04:55;22.90;53.60
3638;DHT22;1835;50.068;8.154;2022-07-06T14:07:23;22.60;51.40
3638;DHT22;1835;50.068;8.154;2022-07-06T14:09:51;22.90;52.20
3638;DHT22;1835;50.068;8.154;2022-07-06T14:12:20;22.80;53.40
3638;DHT22;1835;50.068;8.154;2022-07-06T14:14:50;22.50;53.80
3638;DHT22;1835;50.068;8.154;2022-07-06T14:17:18;22.40;52.40
3638;DHT22;1835;50.068;8.154;2022-07-06T14:19:48;22.40;54.00
3638;DHT22;1835;50.068;8.154;2022-07-06T14:22:17;22.30;54.60
3638;DHT22;1835;50.068;8.154;2022-07-06T14:24:46;22.20;54.90
3638;DHT22;1835;50.068;8.154;2022-07-06T14:27:14;22.00;54.60
3638;DHT22;1835;50.068;8.154;2022-07-06T14:29:42;22.00;55.30
3638;DHT22;1835;50.068;8.154;2022-07-06T14:32:10;21.70;55.60
3638;DHT22;1835;50.068;8.154;2022-07-06T14:34:39;21.70;55.80
3638;DHT22;1835;50.068;8.154;2022-07-06T14:37:07;21.90;57.70
3638;DHT22;1835;50.068;8.154;2022-07-06T14:39:37;22.10;56.30
3638;DHT22;1835;50.068;8.154;2022-07-06T14:42:08;22.00;55.30
3638;DHT22;1835;50.068;8.154;2022-07-06T14:44:37;21.90;56.30
3638;DHT22;1835;50.068;8.154;2022-07-06T14:47:05;22.00;56.10
3638;DHT22;1835;50.068;8.154;2022-07-06T14:49:34;21.90;55.50
3638;DHT22;1835;50.068;8.154;2022-07-06T14:52:02;22.00;55.70
3638;DHT22;1835;50.068;8.154;2022-07-06T14:54:31;22.00;56.50
3638;DHT22;1835;50.068;8.154;2022-07-06T14:57:00;21.60;55.50
3638;DHT22;1835;50.068;8.154;2022-07-06T14:59:31;21.40;56.10
3638;DHT22;1835;50.068;8.154;2022-07-06T15:01:59;21.50;56.70
3638;DHT22;1835;50.068;8.154;2022-07-06T15:04:28;21.50;56.30
3638;DHT22;1835;50.068;8.154;2022-07-06T15:06:56;21.70;56.50
3638;DHT22;1835;50.068;8.154;2022-07-06T15:09:24;21.70;57.30
3638;DHT22;1835;50.068;8.154;2022-07-06T15:11:55;21.80;56.60
3638;DHT22;1835;50.068;8.154;2022-07-06T15:14:25;21.80;56.70
3638;DHT22;1835;50.068;8.154;2022-07-06T15:16:53;21.90;57.30
3638;DHT22;1835;50.068;8.154;2022-07-06T15:19:21;22.10;57.30
3638;DHT22;1835;50.068;8.154;2022-07-06T15:21:50;22.00;55.50
3638;DHT22;1835;50.068;8.154;2022-07-06T15:24:18;22.00;57.40
3638;DHT22;1835;50.068;8.154;2022-07-06T15:26:46;21.80;57.10
3638;DHT22;1835;50.068;8.154;2022-07-06T15:29:14;22.00;57.30
3638;DHT22;1835;50.068;8.154;2022-07-06T15:31:44;21.70;56.20
3638;DHT22;1835;50.068;8.154;2022-07-06T15:34:12;21.70;57.20
3638;DHT22;1835;50.068;8.154;2022-07-06T15:36:41;21.90;57.70
3638;DHT22;1835;50.068;8.154;2022-07-06T15:39:09;22.00;56.70
3638;DHT22;1835;50.068;8.154;2022-07-06T15:41:37;21.90;57.30
3638;DHT22;1835;50.068;8.154;2022-07-06T15:44:05;22.10;57.90
3638;DHT22;1835;50.068;8.154;2022-07-06T15:46:33;22.30;58.80
3638;DHT22;1835;50.068;8.154;2022-07-06T15:49:03;21.90;57.60
3638;DHT22;1835;50.068;8.154;2022-07-06T15:51:32;21.50;56.50
3638;DHT22;1835;50.068;8.154;2022-07-06T15:54:02;21.30;57.40
3638;DHT22;1835;50.068;8.154;2022-07-06T15:56:30;21.20;57.90
3638;DHT22;1835;50.068;8.154;2022-07-06T15:58:58;21.20;57.80
3638;DHT22;1835;50.068;8.154;2022-07-06T16:01:26;21.30;58.90
3638;DHT22;1835;50.068;8.154;2022-07-06T16:03:55;21.10;59.10
3638;DHT22;1835;50.068;8.154;2022-07-06T16:06:25;21.50;58.20
3638;DHT22;1835;50.068;8.154;2022-07-06T16:08:53;21.60;59.50
3638;DHT22;1835;50.068;8.154;2022-07-06T16:11:21;21.60;58.70
3638;DHT22;1835;50.068;8.154;2022-07-06T16:13:49;21.80;57.60
3638;DHT22;1835;50.068;8.154;2022-07-06T16:16:22;22.00;59.10
3638;DHT22;1835;50.068;8.154;2022-07-06T16:18:51;21.90;58.10